Time;durP1;ratioP1;P1;durP2;ratioP2;P2;SDS_P1;SDS_P2;PMS_P1;PMS_P2;Temp;Humidity;BMP_temperature;BMP_pressure;BME280_temperature;BME280_humidity;BME280_pressure;Samples;Min_cycle;Max_cycle;Signal;HPM_P1;HPM_P2
2022/08/08 00:01:38;;;;;;;1.70;0.93;;;16.70;1.00;;;;;;5091126;28;20463;-70
2022/08/08 00:04:11;;;;;;;1.13;0.90;;;16.80;1.00;;;;;;5090322;28;20452;-70
2022/08/08 00:06:48;;;;;;;2.00;0.70;;;16.90;1.00;;;;;;5102345;28;20449;-68
2022/08/08 00:09:25;;;;;;;2.50;0.80;;;16.60;1.00;;;;;;5091229;28;20449;-70
2022/08/08 00:11:59;;;;;;;1.40;0.80;;;16.50;1.00;;;;;;5090424;28;20527;-70
2022/08/08 00:14:44;;;;;;;1.27;1.17;;;16.20;13.50;;;;;;5090494;28;20521;-70
2022/08/08 00:17:17;;;;;;;2.30;1.57;;;16.20;26.40;;;;;;5090971;28;20460;-70
2022/08/08 00:19:49;;;;;;;0.87;0.80;;;16.10;34.80;;;;;;5089915;28;20450;-70
2022/08/08 00:22:22;;;;;;;1.37;0.87;;;16.00;44.70;;;;;;5090921;28;20447;-70
2022/08/08 00:24:54;;;;;;;1.07;0.93;;;16.30;38.30;;;;;;5089914;28;20805;-71
2022/08/08 00:27:22;;;;;;;2.03;0.90;;;16.20;36.30;;;;;;5090473;28;20458;-70
2022/08/08 00:29:55;;;;;;;4.20;1.70;;;16.20;35.60;;;;;;5089907;28;20849;-70
2022/08/08 00:32:27;;;;;;;1.20;1.03;;;16.30;37.70;;;;;;5090534;28;20976;-71
2022/08/08 00:35:35;;;;;;;0.80;0.80;;;16.40;26.00;;;;;;5089422;28;20576;-70
2022/08/08 00:38:17;;;;;;;1.37;0.93;;;16.30;27.30;;;;;;5062510;28;20454;-70
2022/08/08 00:41:17;;;;;;;1.67;1.00;;;16.30;32.50;;;;;;5090219;28;20445;-71
2022/08/08 00:44:24;;;;;;;1.50;1.37;;;16.50;28.30;;;;;;5093222;28;20440;-70
2022/08/08 00:47:30;;;;;;;1.60;1.30;;;16.50;24.80;;;;;;5093864;28;20445;-70
2022/08/08 00:50:42;;;;;;;1.20;1.07;;;16.20;29.90;;;;;;5054487;28;20448;-70
2022/08/08 00:53:19;;;;;;;1.17;0.93;;;16.10;49.90;;;;;;5051759;28;20974;-70
2022/08/08 00:56:24;;;;;;;1.17;0.83;;;16.20;57.50;;;;;;5090792;28;20482;-70
2022/08/08 00:59:32;;;;;;;1.30;0.93;;;16.20;52.00;;;;;;5067426;28;20454;-70
2022/08/08 01:02:18;;;;;;;1.23;0.90;;;16.00;83.00;;;;;;5072994;28;20460;-70
2022/08/08 01:05:22;;;;;;;0.93;0.83;;;16.00;84.20;;;;;;5092992;28;20804;-70
2022/08/08 01:08:18;;;;;;;1.20;1.10;;;15.90;88.10;;;;;;5093268;28;20623;-70
2022/08/08 01:11:17;;;;;;;0.90;0.80;;;15.80;95.20;;;;;;5067302;28;20436;-70
2022/08/08 01:14:23;;;;;;;1.40;0.90;;;15.80;99.90;;;;;;5093016;28;20448;-70
2022/08/08 01:17:14;;;;;;;1.30;1.00;;;15.80;99.90;;;;;;5043058;28;20568;-70
2022/08/08 01:20:25;;;;;;;0.80;0.80;;;15.70;99.90;;;;;;5080387;28;20466;-70
2022/08/08 01:23:28;;;;;;;1.40;1.30;;;15.60;99.90;;;;;;5080128;28;20951;-71
2022/08/08 01:26:20;;;;;;;1.03;0.93;;;15.50;99.90;;;;;;5093018;28;20451;-70
2022/08/08 01:29:37;;;;;;;1.43;1.00;;;15.30;99.90;;;;;;5079835;28;20463;-70
2022/08/08 01:32:40;;;;;;;1.13;0.90;;;15.40;99.90;;;;;;5093814;28;20460;-70
2022/08/08 01:35:33;;;;;;;1.00;0.90;;;15.50;99.90;;;;;;5070031;28;20488;-71
2022/08/08 01:38:31;;;;;;;0.80;0.80;;;15.50;99.90;;;;;;5081208;28;20441;-70
2022/08/08 01:41:05;;;;;;;1.60;1.00;;;15.40;99.90;;;;;;5092835;28;20829;-69
2022/08/08 01:43:42;;;;;;;0.80;0.80;;;15.30;99.90;;;;;;5093234;28;20515;-71
2022/08/08 01:46:37;;;;;;;1.40;0.90;;;15.30;99.90;;;;;;5093614;28;20448;-69
2022/08/08 01:49:14;;;;;;;1.20;1.10;;;15.30;99.90;;;;;;5093031;28;20452;-71
2022/08/08 01:51:59;;;;;;;1.63;1.20;;;15.30;99.90;;;;;;5092797;28;20433;-69
2022/08/08 01:54:39;;;;;;;1.63;1.10;;;15.30;99.90;;;;;;5092454;28;20520;-71
2022/08/08 01:57:17;;;;;;;0.70;0.70;;;15.30;99.90;;;;;;5093351;28;20497;-70
2022/08/08 02:00:11;;;;;;;1.47;1.37;;;15.20;99.90;;;;;;5092699;28;20450;-69
2022/08/08 02:03:07;;;;;;;1.00;0.90;;;15.10;99.90;;;;;;5083200;28;20456;-67
2022/08/08 02:05:45;;;;;;;1.30;1.00;;;15.00;99.90;;;;;;5092758;28;20455;-70
2022/08/08 02:08:21;;;;;;;1.30;1.20;;;15.00;99.90;;;;;;5092980;28;20523;-71
2022/08/08 02:10:59;;;;;;;1.40;0.90;;;15.00;99.90;;;;;;5092650;28;20444;-70
2022/08/08 02:13:32;;;;;;;2.93;1.20;;;15.00;99.90;;;;;;5092338;28;20993;-70
2022/08/08 02:16:09;;;;;;;1.30;1.00;;;15.20;99.90;;;;;;5092370;28;20503;-69
2022/08/08 02:18:43;;;;;;;2.30;0.90;;;15.10;99.90;;;;;;5092735;28;20440;-70
2022/08/08 02:24:19;;;;;;;1.33;0.87;;;15.10;99.90;;;;;;5052488;28;20862;-70
2022/08/08 02:26:52;;;;;;;1.07;0.97;;;15.30;99.90;;;;;;5092053;28;20449;-71
2022/08/08 02:29:37;;;;;;;1.20;1.00;;;15.20;99.90;;;;;;5092632;28;20444;-71
2022/08/08 02:32:16;;;;;;;3.80;0.97;;;15.00;99.90;;;;;;5092775;28;20456;-69
2022/08/08 02:35:09;;;;;;;2.00;1.03;;;14.90;99.90;;;;;;5091295;28;20448;-69
2022/08/08 02:37:46;;;;;;;1.10;0.93;;;15.10;99.90;;;;;;5068812;28;20456;-69
2022/08/08 02:40:19;;;;;;;0.93;0.80;;;15.00;99.90;;;;;;5092486;28;20451;-70
2022/08/08 02:43:28;;;;;;;0.80;0.80;;;14.90;99.90;;;;;;5078795;28;20449;-69
2022/08/08 02:46:26;;;;;;;2.30;0.97;;;14.70;99.90;;;;;;5091770;28;20448;-70
2022/08/08 02:49:32;;;;;;;1.10;1.00;;;14.80;99.90;;;;;;5094012;28;20441;-71
2022/08/08 02:52:18;;;;;;;2.00;0.87;;;14.70;99.90;;;;;;5085740;28;20457;-70
2022/08/08 02:55:22;;;;;;;1.50;1.30;;;14.60;99.90;;;;;;5091232;28;20437;-70
2022/08/08 02:58:34;;;;;;;1.37;1.10;;;14.50;99.90;;;;;;5085942;28;20456;-70
2022/08/08 03:01:40;;;;;;;1.20;0.93;;;14.50;99.90;;;;;;5019659;28;20819;-69
2022/08/08 03:04:50;;;;;;;1.50;0.80;;;14.40;99.90;;;;;;5091846;28;20891;-70
2022/08/08 03:08:07;;;;;;;1.53;1.00;;;14.40;99.90;;;;;;5079639;28;20459;-70
2022/08/08 03:11:10;;;;;;;1.10;1.00;;;14.60;99.90;;;;;;5091874;28;20440;-70
2022/08/08 03:14:07;;;;;;;1.30;1.20;;;14.50;99.90;;;;;;5069426;28;20536;-72
2022/08/08 03:16:46;;;;;;;1.00;0.90;;;14.40;99.90;;;;;;5091935;28;20472;-70
2022/08/08 03:19:28;;;;;;;2.67;1.00;;;14.50;99.90;;;;;;5091723;28;20451;-70
2022/08/08 03:21:55;;;;;;;2.50;1.10;;;14.40;99.90;;;;;;5090721;28;20476;-70
2022/08/08 03:24:23;;;;;;;0.80;0.70;;;14.50;99.90;;;;;;5091246;28;20441;-70
2022/08/08 03:26:55;;;;;;;0.93;0.93;;;14.40;99.90;;;;;;5090974;28;20526;-70
2022/08/08 03:29:30;;;;;;;1.10;0.93;;;14.30;99.90;;;;;;5091386;28;20527;-70
2022/08/08 03:34:41;;;;;;;1.20;0.90;;;14.50;99.90;;;;;;5090171;28;20485;-70
2022/08/08 03:37:10;;;;;;;1.30;1.10;;;14.30;99.90;;;;;;5091320;28;20571;-70
2022/08/08 03:39:38;;;;;;;1.30;1.20;;;14.50;99.90;;;;;;5091584;28;20452;-71
2022/08/08 03:42:05;;;;;;;1.20;1.10;;;14.40;99.90;;;;;;5091385;28;20445;-70
2022/08/08 03:44:33;;;;;;;0.90;0.80;;;14.50;99.90;;;;;;5090853;28;20527;-70
2022/08/08 03:47:00;;;;;;;1.03;0.90;;;14.60;99.90;;;;;;5090613;28;20460;-71
2022/08/08 03:49:27;;;;;;;1.30;1.10;;;14.60;99.90;;;;;;5090707;28;20455;-71
2022/08/08 03:51:55;;;;;;;1.30;1.10;;;14.60;99.90;;;;;;5090664;28;20445;-71
2022/08/08 03:54:23;;;;;;;1.50;1.40;;;14.50;99.90;;;;;;5090787;28;20456;-71
2022/08/08 03:56:51;;;;;;;1.00;0.90;;;14.40;99.90;;;;;;5090356;28;20529;-72
2022/08/08 03:59:19;;;;;;;1.10;0.90;;;14.50;99.90;;;;;;5090907;28;20451;-71
2022/08/08 04:01:45;;;;;;;1.10;1.00;;;14.40;99.90;;;;;;5090401;28;20448;-70
2022/08/08 04:04:12;;;;;;;1.27;1.03;;;14.30;99.90;;;;;;5090395;28;20441;-72
2022/08/08 04:06:39;;;;;;;4.37;1.20;;;14.10;1.00;;;;;;5090483;28;20449;-70
2022/08/08 04:09:08;;;;;;;1.27;0.90;;;14.20;1.00;;;;;;5091247;28;20459;-70
2022/08/08 04:11:39;;;;;;;1.40;1.20;;;14.10;1.00;;;;;;5091262;28;20476;-70
2022/08/08 04:14:07;;;;;;;1.57;1.47;;;14.10;1.00;;;;;;5090669;28;20451;-70
2022/08/08 04:16:34;;;;;;;1.60;1.10;;;14.00;1.00;;;;;;5091034;28;20488;-71
2022/08/08 04:19:01;;;;;;;0.83;0.83;;;14.00;1.00;;;;;;5094410;28;20453;-70
2022/08/08 04:21:28;;;;;;;1.63;1.20;;;13.90;1.00;;;;;;5095435;28;20883;-71
2022/08/08 04:23:55;;;;;;;2.00;1.03;;;14.10;1.00;;;;;;5094696;28;20451;-70
2022/08/08 04:26:22;;;;;;;2.27;1.30;;;14.10;1.00;;;;;;5099653;28;20471;-71
2022/08/08 04:28:48;;;;;;;1.20;1.10;;;14.00;1.00;;;;;;5110191;28;20475;-70
2022/08/08 04:31:17;;;;;;;1.33;1.23;;;14.00;1.00;;;;;;5108619;28;20476;-70
2022/08/08 04:33:43;;;;;;;1.10;0.90;;;14.00;1.00;;;;;;5105629;28;20452;-70
2022/08/08 04:36:10;;;;;;;1.20;1.03;;;13.90;1.00;;;;;;5106105;28;20498;-70
2022/08/08 04:38:38;;;;;;;0.97;0.87;;;14.00;1.00;;;;;;5104825;28;20530;-70
2022/08/08 04:41:05;;;;;;;1.93;1.50;;;14.00;1.00;;;;;;5099289;28;20455;-71
2022/08/08 04:43:32;;;;;;;1.77;1.37;;;14.10;1.00;;;;;;5094460;28;20443;-70
2022/08/08 04:45:59;;;;;;;2.00;1.10;;;14.30;1.00;;;;;;5094388;28;20495;-70
2022/08/08 04:48:28;;;;;;;1.30;1.20;;;14.20;1.00;;;;;;5094717;28;20478;-69
2022/08/08 04:50:54;;;;;;;1.00;0.90;;;14.40;1.00;;;;;;5093918;28;20539;-71
2022/08/08 04:53:21;;;;;;;0.93;0.83;;;14.30;1.00;;;;;;5093666;28;20456;-70
2022/08/08 04:55:48;;;;;;;2.20;1.60;;;14.50;1.00;;;;;;5094014;28;20453;-70
2022/08/08 04:58:16;;;;;;;2.10;1.20;;;14.40;1.00;;;;;;5094353;28;20796;-71
2022/08/08 05:00:42;;;;;;;2.03;1.13;;;14.40;1.00;;;;;;5093443;28;20587;-70
2022/08/08 05:03:09;;;;;;;1.20;1.10;;;14.40;1.00;;;;;;5094075;28;20463;-70
2022/08/08 05:05:38;;;;;;;1.43;1.30;;;14.50;1.00;;;;;;5094239;28;20445;-71
2022/08/08 05:08:05;;;;;;;1.50;1.40;;;14.60;1.00;;;;;;5094080;28;20528;-70
2022/08/08 05:10:32;;;;;;;1.13;1.03;;;14.70;1.00;;;;;;5094247;28;20491;-70
2022/08/08 05:12:59;;;;;;;1.23;1.10;;;14.70;1.00;;;;;;5093204;28;20451;-70
2022/08/08 05:15:26;;;;;;;1.27;1.10;;;14.60;1.00;;;;;;5094083;28;20455;-71
2022/08/08 05:17:52;;;;;;;1.80;1.23;;;14.90;1.00;;;;;;5093104;28;20485;-71
2022/08/08 05:20:20;;;;;;;1.07;0.97;;;14.90;99.90;;;;;;5093993;28;20856;-71
2022/08/08 05:22:49;;;;;;;2.20;0.90;;;14.90;1.00;;;;;;5092814;28;20474;-70
2022/08/08 05:25:16;;;;;;;2.20;1.70;;;14.90;1.00;;;;;;5093943;28;20805;-71
2022/08/08 05:27:43;;;;;;;1.70;1.00;;;15.10;99.90;;;;;;5093274;28;20482;-71
2022/08/08 05:30:11;;;;;;;2.57;1.50;;;15.10;99.90;;;;;;5092717;28;20439;-70
2022/08/08 05:32:38;;;;;;;2.10;1.30;;;15.10;99.90;;;;;;5093564;28;20578;-71
2022/08/08 05:35:06;;;;;;;1.20;1.10;;;15.20;99.90;;;;;;5093077;28;20911;-70
2022/08/08 05:37:38;;;;;;;1.43;1.20;;;15.30;99.90;;;;;;5093326;28;20483;-70
2022/08/08 05:40:08;;;;;;;1.20;1.10;;;15.30;99.90;;;;;;5094022;28;20442;-70
2022/08/08 05:42:41;;;;;;;1.43;1.30;;;15.40;99.90;;;;;;5093586;28;20545;-70
2022/08/08 05:45:11;;;;;;;1.50;1.40;;;15.70;99.90;;;;;;5094029;28;20440;-70
2022/08/08 05:47:40;;;;;;;1.80;1.30;;;15.90;99.90;;;;;;5093522;28;20452;-68
2022/08/08 05:50:07;;;;;;;3.70;1.43;;;16.10;99.90;;;;;;5093066;28;20456;-70
2022/08/08 05:52:36;;;;;;;1.97;1.40;;;16.20;99.90;;;;;;5093704;28;20438;-71
2022/08/08 05:55:03;;;;;;;1.30;1.20;;;16.20;99.90;;;;;;5092068;28;20827;-70
2022/08/08 05:57:35;;;;;;;2.30;1.70;;;16.30;99.90;;;;;;5093522;28;20571;-71
2022/08/08 06:00:05;;;;;;;1.20;1.10;;;16.80;99.90;;;;;;5092418;28;20459;-71
2022/08/08 06:05:19;;;;;;;1.50;1.40;;;17.20;99.90;;;;;;5092796;28;20423;-71
2022/08/08 06:07:48;;;;;;;1.90;1.30;;;17.30;99.90;;;;;;5092125;28;20445;-70
2022/08/08 06:10:15;;;;;;;1.70;1.37;;;17.50;99.90;;;;;;5093038;28;20444;-70
2022/08/08 06:12:44;;;;;;;2.63;1.83;;;17.50;99.90;;;;;;5092148;28;20803;-70
2022/08/08 06:15:12;;;;;;;1.70;1.30;;;17.60;99.90;;;;;;5092649;28;20877;-70
2022/08/08 06:17:40;;;;;;;2.20;1.23;;;17.70;99.90;;;;;;5092009;28;20483;-68
2022/08/08 06:20:08;;;;;;;2.43;1.60;;;17.90;99.90;;;;;;5093044;28;20447;-71
2022/08/08 06:22:36;;;;;;;2.33;1.63;;;18.10;99.90;;;;;;5092938;28;20444;-70
2022/08/08 06:25:05;;;;;;;1.70;1.60;;;18.20;99.90;;;;;;5091991;28;20483;-70
2022/08/08 06:27:39;;;;;;;1.50;1.27;;;18.70;99.90;;;;;;5092268;28;20540;-71
2022/08/08 06:30:09;;;;;;;4.17;1.47;;;18.80;99.90;;;;;;5092359;28;20868;-70
2022/08/08 06:32:41;;;;;;;2.90;1.60;;;18.70;99.90;;;;;;5092577;28;20814;-70
2022/08/08 06:35:12;;;;;;;1.50;1.40;;;18.70;99.90;;;;;;5095088;28;20479;-70
2022/08/08 06:37:44;;;;;;;2.00;1.80;;;18.60;99.90;;;;;;5092022;28;20583;-70
2022/08/08 06:40:13;;;;;;;1.70;1.53;;;18.60;99.90;;;;;;5092127;28;20799;-71
2022/08/08 06:42:46;;;;;;;2.13;1.60;;;18.80;99.90;;;;;;5091021;28;20457;-71
2022/08/08 06:45:15;;;;;;;1.67;1.57;;;18.90;99.90;;;;;;5092222;28;20445;-71
2022/08/08 06:47:42;;;;;;;2.90;1.60;;;19.00;99.90;;;;;;5091474;28;20483;-71
2022/08/08 06:50:10;;;;;;;1.60;1.30;;;19.10;99.90;;;;;;5092106;28;20449;-70
2022/08/08 06:52:38;;;;;;;1.63;1.37;;;19.10;99.90;;;;;;5091830;28;20445;-70
2022/08/08 06:55:06;;;;;;;1.67;1.57;;;19.20;99.90;;;;;;5091956;28;20437;-71
2022/08/08 06:57:33;;;;;;;1.67;1.43;;;19.20;99.90;;;;;;5091876;28;20516;-71
2022/08/08 07:00:00;;;;;;;1.70;1.30;;;19.30;99.90;;;;;;5090850;28;20988;-71
2022/08/08 07:02:32;;;;;;;1.57;1.33;;;19.40;99.90;;;;;;5092002;28;20475;-71
2022/08/08 07:05:04;;;;;;;1.53;1.43;;;19.50;99.90;;;;;;5091145;28;20528;-71
2022/08/08 07:07:41;;;;;;;1.70;1.60;;;19.60;99.90;;;;;;5091956;28;20468;-70
2022/08/08 07:10:09;;;;;;;1.63;1.17;;;19.70;99.90;;;;;;5091509;28;20535;-70
2022/08/08 07:12:41;;;;;;;2.20;1.70;;;19.80;99.90;;;;;;5091451;28;20445;-70
2022/08/08 07:15:10;;;;;;;2.60;1.67;;;19.90;99.90;;;;;;5091591;28;21057;-70
2022/08/08 07:17:47;;;;;;;1.93;1.50;;;20.10;99.90;;;;;;5091534;28;20922;-71
2022/08/08 07:20:18;;;;;;;1.83;1.70;;;20.10;99.90;;;;;;5091366;28;20451;-70
2022/08/08 07:22:58;;;;;;;2.70;1.43;;;20.20;99.90;;;;;;5090216;28;20560;-70
2022/08/08 07:25:26;;;;;;;1.63;1.53;;;20.30;99.90;;;;;;5091496;28;20467;-70
2022/08/08 07:28:02;;;;;;;2.03;1.73;;;20.40;99.90;;;;;;5091140;28;20482;-71
2022/08/08 07:30:29;;;;;;;1.60;1.40;;;20.40;99.90;;;;;;5091330;28;20916;-71
2022/08/08 07:32:59;;;;;;;1.97;1.80;;;20.60;99.90;;;;;;5090150;28;20449;-70
2022/08/08 07:35:27;;;;;;;3.23;1.60;;;20.70;99.90;;;;;;5094923;28;20467;-70
2022/08/08 07:37:57;;;;;;;2.13;1.93;;;20.70;99.90;;;;;;5090720;28;20571;-70
2022/08/08 07:40:24;;;;;;;1.50;1.33;;;20.80;99.90;;;;;;5091213;28;20558;-71
2022/08/08 07:42:53;;;;;;;1.80;1.70;;;20.80;99.90;;;;;;5090111;28;20462;-71
2022/08/08 07:45:20;;;;;;;3.33;2.00;;;21.00;99.90;;;;;;5090825;28;20602;-70
2022/08/08 07:47:47;;;;;;;2.30;2.10;;;21.20;99.90;;;;;;5091014;28;20508;-70
2022/08/08 07:50:15;;;;;;;2.80;2.17;;;21.30;99.90;;;;;;5091114;28;20455;-71
2022/08/08 07:52:47;;;;;;;2.60;1.80;;;21.40;99.90;;;;;;5089454;28;20974;-70
2022/08/08 07:55:21;;;;;;;3.17;2.00;;;21.40;99.90;;;;;;5091402;28;20498;-70
2022/08/08 07:57:56;;;;;;;2.83;2.37;;;21.40;99.90;;;;;;5090711;28;20476;-71
2022/08/08 08:00:28;;;;;;;2.30;2.10;;;21.60;99.90;;;;;;5091074;28;20813;-71
2022/08/08 08:03:03;;;;;;;2.77;2.20;;;21.60;99.90;;;;;;5090080;28;20459;-70
2022/08/08 08:05:36;;;;;;;2.60;1.97;;;21.70;99.90;;;;;;5090814;28;20532;-70
2022/08/08 08:08:06;;;;;;;3.77;1.93;;;21.80;99.90;;;;;;5091256;28;20441;-70
2022/08/08 08:10:35;;;;;;;2.30;2.10;;;21.90;99.90;;;;;;5091690;28;20535;-71
2022/08/08 08:13:22;;;;;;;4.90;1.93;;;22.00;99.90;;;;;;5090324;28;20449;-70
2022/08/08 08:15:55;;;;;;;2.10;1.80;;;22.20;99.90;;;;;;5091756;28;20478;-71
2022/08/08 08:18:23;;;;;;;2.50;2.30;;;22.20;99.90;;;;;;5099528;28;20472;-71
2022/08/08 08:20:53;;;;;;;1.50;1.37;;;22.30;99.90;;;;;;5101839;28;20488;-71
2022/08/08 08:23:20;;;;;;;1.63;1.53;;;22.40;99.90;;;;;;5101183;28;20484;-71
2022/08/08 08:25:47;;;;;;;2.27;2.00;;;22.50;99.90;;;;;;5099701;28;20448;-71
2022/08/08 08:28:14;;;;;;;2.83;1.73;;;22.60;94.70;;;;;;5098150;28;20459;-71
2022/08/08 08:30:41;;;;;;;1.93;1.77;;;22.80;90.40;;;;;;5095509;28;20445;-71
2022/08/08 08:33:08;;;;;;;2.37;2.00;;;22.80;80.10;;;;;;5091932;28;20471;-71
2022/08/08 08:35:34;;;;;;;2.20;2.00;;;22.90;74.70;;;;;;5090245;28;20972;-71
2022/08/08 08:38:03;;;;;;;2.23;1.87;;;23.00;71.40;;;;;;5090377;28;20912;-71
2022/08/08 08:40:31;;;;;;;1.77;1.67;;;23.10;66.60;;;;;;5090809;28;20456;-71
2022/08/08 08:42:58;;;;;;;1.87;1.70;;;23.00;65.00;;;;;;5089839;28;20928;-71
2022/08/08 08:45:26;;;;;;;4.10;2.10;;;23.10;62.10;;;;;;5090775;28;20449;-71
2022/08/08 08:47:54;;;;;;;2.07;1.80;;;23.20;57.50;;;;;;5090061;28;20456;-71
2022/08/08 08:50:22;;;;;;;1.80;1.70;;;23.30;54.70;;;;;;5090380;28;20543;-71
2022/08/08 08:52:49;;;;;;;2.00;1.90;;;23.50;48.00;;;;;;5090025;28;20452;-71
2022/08/08 08:55:19;;;;;;;1.57;1.47;;;23.50;40.60;;;;;;5090219;28;20449;-71
2022/08/08 08:57:49;;;;;;;2.00;1.90;;;23.50;37.20;;;;;;5090016;28;20882;-71
2022/08/08 09:00:17;;;;;;;1.87;1.47;;;23.60;33.00;;;;;;5090563;28;20521;-71
2022/08/08 09:02:47;;;;;;;1.77;1.67;;;23.70;30.40;;;;;;5089953;28;20457;-71
2022/08/08 09:05:15;;;;;;;1.70;1.60;;;23.70;26.70;;;;;;5094241;28;20454;-71
2022/08/08 09:07:43;;;;;;;2.03;1.83;;;23.80;25.90;;;;;;5093619;28;20533;-71
2022/08/08 09:10:14;;;;;;;2.63;2.20;;;23.90;23.60;;;;;;5094078;28;20527;-70
2022/08/08 09:12:46;;;;;;;1.80;1.70;;;23.90;22.10;;;;;;5093216;28;20441;-71
2022/08/08 09:15:13;;;;;;;1.83;1.57;;;24.00;19.70;;;;;;5094108;28;20484;-70
2022/08/08 09:17:41;;;;;;;1.77;1.67;;;24.00;17.50;;;;;;5093118;28;20480;-70
2022/08/08 09:20:09;;;;;;;2.20;2.00;;;24.10;15.10;;;;;;5094166;28;20470;-71
2022/08/08 09:22:37;;;;;;;1.67;1.57;;;24.20;14.70;;;;;;5093555;28;20506;-70
2022/08/08 09:25:06;;;;;;;1.73;1.63;;;24.20;12.20;;;;;;5094085;28;20460;-71
2022/08/08 09:27:34;;;;;;;3.10;1.97;;;24.50;8.90;;;;;;5093785;28;20452;-71
2022/08/08 09:30:07;;;;;;;2.07;1.87;;;24.60;2.60;;;;;;5093056;28;20469;-71
2022/08/08 09:32:40;;;;;;;1.70;1.40;;;24.50;1.00;;;;;;5093506;28;20810;-71
2022/08/08 09:35:09;;;;;;;1.73;1.63;;;24.60;1.00;;;;;;5096269;28;20469;-71
2022/08/08 09:37:44;;;;;;;1.73;1.63;;;24.40;1.00;;;;;;5094390;28;20485;-70
2022/08/08 09:40:12;;;;;;;1.83;1.70;;;24.50;1.00;;;;;;5093452;28;20792;-70
2022/08/08 09:42:41;;;;;;;2.50;2.00;;;24.70;1.00;;;;;;5092602;28;20572;-70
2022/08/08 09:45:11;;;;;;;1.97;1.77;;;24.70;1.00;;;;;;5093798;28;20799;-71
2022/08/08 09:47:40;;;;;;;1.80;1.70;;;24.60;1.00;;;;;;5093270;28;20482;-71
2022/08/08 09:50:09;;;;;;;2.17;1.70;;;24.70;1.00;;;;;;5093408;28;20819;-71
2022/08/08 09:52:38;;;;;;;2.00;1.80;;;24.60;1.00;;;;;;5092665;28;20475;-71
2022/08/08 09:55:06;;;;;;;2.60;1.53;;;24.80;1.00;;;;;;5093400;28;20444;-70
2022/08/08 09:57:35;;;;;;;1.63;1.53;;;24.90;1.00;;;;;;5093507;28;20496;-70
2022/08/08 10:00:06;;;;;;;1.43;1.33;;;25.10;1.00;;;;;;5092547;28;20452;-71
2022/08/08 10:02:38;;;;;;;1.97;1.57;;;25.30;1.00;;;;;;5092797;28;20495;-71
2022/08/08 10:05:08;;;;;;;1.63;1.53;;;25.30;1.00;;;;;;5092915;28;20447;-71
2022/08/08 10:07:36;;;;;;;1.80;1.30;;;25.50;1.00;;;;;;5093127;28;20811;-70
2022/08/08 10:10:03;;;;;;;1.30;1.20;;;25.50;1.00;;;;;;5092658;28;20836;-71
2022/08/08 10:12:37;;;;;;;1.40;1.30;;;25.60;1.00;;;;;;5092353;28;20455;-71
2022/08/08 10:15:06;;;;;;;2.57;1.40;;;25.60;1.00;;;;;;5092299;28;20445;-71
2022/08/08 10:17:44;;;;;;;1.93;1.40;;;25.60;1.00;;;;;;5092782;28;20540;-70
2022/08/08 10:20:12;;;;;;;1.33;1.23;;;25.80;1.00;;;;;;5092566;28;20944;-71
2022/08/08 10:22:44;;;;;;;1.67;1.20;;;26.00;1.00;;;;;;5091663;28;20448;-70
2022/08/08 10:25:18;;;;;;;2.33;1.47;;;26.10;1.00;;;;;;5092827;28;20436;-71
2022/08/08 10:27:49;;;;;;;1.87;1.70;;;26.10;1.00;;;;;;5092050;28;20437;-71
2022/08/08 10:30:17;;;;;;;2.13;1.93;;;26.00;1.00;;;;;;5092976;28;20472;-70
2022/08/08 10:32:51;;;;;;;1.70;1.60;;;26.20;1.00;;;;;;5091119;28;20452;-71
2022/08/08 10:35:20;;;;;;;1.80;1.70;;;26.50;1.00;;;;;;5092519;28;20487;-71
2022/08/08 10:37:56;;;;;;;2.17;1.90;;;26.70;1.00;;;;;;5091360;28;20484;-71
2022/08/08 10:40:24;;;;;;;2.30;2.03;;;26.70;1.00;;;;;;5092622;28;20441;-70
2022/08/08 10:42:56;;;;;;;1.87;1.77;;;26.50;1.00;;;;;;5091613;28;20459;-71
2022/08/08 10:45:23;;;;;;;2.10;1.90;;;26.50;1.00;;;;;;5092040;28;20940;-71
2022/08/08 10:47:57;;;;;;;2.10;1.80;;;26.60;1.00;;;;;;5091798;28;20448;-73
2022/08/08 10:50:32;;;;;;;2.70;2.40;;;26.60;1.00;;;;;;5092178;28;20445;-72
2022/08/08 10:53:03;;;;;;;1.70;1.60;;;;;;;;;;5091170;28;20505;-72
2022/08/08 10:55:30;;;;;;;2.03;1.57;;;;;;;;;;5091689;28;20451;-72
2022/08/08 10:58:00;;;;;;;2.40;1.67;;;;;;;;;;5091585;28;20480;-72
2022/08/08 11:00:28;;;;;;;1.90;1.80;;;;;;;;;;5092060;28;20452;-72
2022/08/08 11:02:57;;;;;;;2.50;2.30;;;;;;;;;;5091350;28;20467;-73
2022/08/08 11:05:26;;;;;;;2.27;1.97;;;;;;;;;;5091791;28;20548;-73
2022/08/08 11:07:56;;;;;;;1.50;1.40;;;;;;;;;;5090813;28;20459;-71
2022/08/08 11:10:24;;;;;;;1.70;1.60;;;;;;;;;;5091587;28;20456;-72
2022/08/08 11:12:52;;;;;;;1.70;1.60;;;;;;;;;;5090458;28;20892;-72
2022/08/08 11:15:20;;;;;;;1.40;1.30;;;;;;;;;;5091808;28;20440;-73
2022/08/08 11:17:48;;;;;;;1.87;1.77;;;;;;;;;;5090805;28;20448;-71
2022/08/08 11:20:18;;;;;;;1.70;1.50;;;;;;;;;;5091628;28;20441;-71
2022/08/08 11:22:48;;;;;;;3.00;1.80;;;;;;;;;;5090493;28;20441;-71
2022/08/08 11:25:15;;;;;;;1.47;1.37;;;;;;;;;;5091837;28;20455;-71
2022/08/08 11:27:43;;;;;;;1.40;1.30;;;;;;;;;;5089874;28;20459;-71
2022/08/08 11:30:11;;;;;;;1.50;1.40;;;;;;;;;;5091726;28;20535;-71
2022/08/08 11:32:40;;;;;;;1.30;1.20;;;;;;;;;;5091139;28;20452;-72
2022/08/08 11:35:08;;;;;;;1.70;1.60;;;;;;;;;;5094012;28;20472;-72
2022/08/08 11:37:37;;;;;;;1.73;1.63;;;;;;;;;;5092462;28;20528;-73
2022/08/08 11:40:06;;;;;;;1.27;1.17;;;;;;;;;;5091733;28;20476;-71
2022/08/08 11:42:33;;;;;;;1.60;1.50;;;;;;;;;;5091036;28;20458;-71
2022/08/08 11:45:01;;;;;;;1.60;1.50;;;;;;;;;;5090792;28;20445;-72
2022/08/08 11:47:28;;;;;;;1.50;1.40;;;;;;;;;;5091304;28;20456;-71
2022/08/08 11:49:57;;;;;;;1.40;1.30;;;;;;;;;;5090830;28;20448;-71
2022/08/08 11:52:25;;;;;;;1.40;1.30;;;;;;;;;;5090397;28;20952;-71
2022/08/08 11:54:54;;;;;;;1.80;1.70;;;;;;;;;;5090716;28;20444;-72
2022/08/08 11:57:22;;;;;;;1.90;1.80;;;;;;;;;;5091015;28;21022;-72
2022/08/08 11:59:53;;;;;;;1.50;1.40;;;;;;;;;;5091486;28;20480;-71
2022/08/08 12:02:21;;;;;;;2.20;1.40;;;;;;;;;;5094417;28;20452;-72
2022/08/08 12:04:50;;;;;;;1.37;1.27;;;;;;;;;;5099903;28;20518;-72
2022/08/08 12:07:17;;;;;;;1.47;1.37;;;;;;;;;;5114493;28;20444;-72
2022/08/08 12:09:44;;;;;;;1.73;1.63;;;;;;;;;;5101085;28;20456;-71
2022/08/08 12:12:21;;;;;;;1.47;1.37;;;;;;;;;;5099983;28;20899;-72
2022/08/08 12:14:59;;;;;;;1.40;1.30;;;;;;;;;;5097086;28;20440;-71
2022/08/08 12:17:32;;;;;;;1.50;1.40;;;;;;;;;;5093270;28;20444;-72
2022/08/08 12:19:59;;;;;;;1.17;1.00;;;;;;;;;;5090293;28;20468;-71
2022/08/08 12:22:26;;;;;;;1.87;1.70;;;;;;;;;;5090447;28;20440;-72
2022/08/08 12:24:53;;;;;;;1.60;1.50;;;;;;;;;;5089928;28;20445;-72
2022/08/08 12:27:22;;;;;;;1.57;1.47;;;;;;;;;;5090861;28;20455;-71
2022/08/08 12:29:57;;;;;;;1.70;1.60;;;;;;;;;;5089817;28;21015;-71
2022/08/08 12:32:24;;;;;;;1.70;1.60;;;;;;;;;;5090279;28;20517;-71
2022/08/08 12:35:01;;;;;;;2.30;1.80;;;;;;;;;;5090011;28;20484;-72
2022/08/08 12:37:29;;;;;;;1.50;1.40;;;;;;;;;;5090505;28;20531;-72
2022/08/08 12:39:56;;;;;;;1.70;1.60;;;;;;;;;;5093970;28;20480;-72
2022/08/08 12:42:25;;;;;;;1.70;1.60;;;;;;;;;;5093956;28;20497;-72
2022/08/08 12:45:02;;;;;;;1.73;1.60;;;;;;;;;;5094059;28;20452;-72
2022/08/08 12:47:29;;;;;;;1.40;1.30;;;;;;;;;;5094268;28;20900;-72
2022/08/08 12:49:56;;;;;;;1.60;1.50;;;;;;;;;;5093898;28;20470;-71
2022/08/08 12:52:24;;;;;;;1.70;1.60;;;;;;;;;;5093636;28;20981;-72
2022/08/08 12:55:02;;;;;;;1.40;1.30;;;;;;;;;;5093553;28;20452;-71
2022/08/08 12:57:30;;;;;;;1.13;1.03;;;;;;;;;;5094445;28;20458;-71
2022/08/08 12:59:57;;;;;;;1.50;1.40;;;;;;;;;;5093729;28;20480;-71
2022/08/08 13:02:26;;;;;;;1.60;1.50;;;;;;;;;;5093824;28;20456;-72
2022/08/08 13:04:53;;;;;;;1.87;1.77;;;;;;;;;;5093620;28;20535;-71
2022/08/08 13:07:21;;;;;;;1.50;1.40;;;;;;;;;;5093802;28;20440;-72
2022/08/08 13:09:57;;;;;;;1.60;1.50;;;;;;;;;;5093153;28;20490;-71
2022/08/08 13:12:26;;;;;;;1.43;1.33;;;;;;;;;;5093701;28;20459;-71
2022/08/08 13:14:55;;;;;;;2.40;2.20;;;;;;;;;;5093539;28;20443;-72
2022/08/08 13:17:25;;;;;;;1.70;1.60;;;;;;;;;;5093935;28;20440;-71
2022/08/08 13:19:53;;;;;;;1.33;1.23;;;;;;;;;;5093518;28;20511;-71
2022/08/08 13:22:21;;;;;;;2.63;1.40;;;;;;;;;;5092998;28;20927;-71
2022/08/08 13:24:48;;;;;;;1.63;1.53;;;;;;;;;;5093125;28;20470;-72
2022/08/08 13:27:16;;;;;;;1.83;1.40;;;;;;;;;;5093599;28;20504;-71
2022/08/08 13:29:50;;;;;;;1.73;1.63;;;;;;;;;;5092975;28;20459;-72
2022/08/08 13:32:19;;;;;;;1.60;1.50;;;;;;;;;;5092894;28;20462;-71
2022/08/08 13:34:49;;;;;;;1.73;1.30;;;;;;;;;;5092471;28;20441;-72
2022/08/08 13:37:17;;;;;;;1.50;1.37;;;;;;;;;;5089231;28;20428;-72
2022/08/08 13:39:44;;;;;;;2.10;1.20;;;;;;;;;;5093024;28;20491;-71
2022/08/08 13:42:11;;;;;;;1.70;1.60;;;;;;;;;;5092905;28;20455;-71
2022/08/08 13:44:38;;;;;;;4.00;1.60;;;;;;;;;;5093557;28;20444;-71
2022/08/08 13:47:05;;;;;;;1.60;1.50;;;;;;;;;;5093526;28;20450;-71
2022/08/08 13:49:34;;;;;;;1.60;1.50;;;;;;;;;;5092316;28;20788;-71
2022/08/08 13:52:02;;;;;;;1.60;1.50;;;;;;;;;;5091959;28;20527;-71
2022/08/08 13:54:30;;;;;;;1.57;1.47;;;;;;;;;;5092862;28;20450;-72